This is the latest recevied weather packets stored in our database for station/object RN1M-13. If no packets are shown the sender has not sent any weather packets the latest 10 day(s).
| Time | Temp. | Humidity | Pressure | Rain* | Wind** | Luminosity | Snow |
|---|---|---|---|---|---|---|---|
| 1777434588 | 3.33° C | 100% | 1018.5 hPa | - | - | - | - |
| 1777432788 | 2.78° C | 100% | 1018.2 hPa | - | - | - | - |
| 1777410296 | 5° C | 100% | 1015.2 hPa | - | - | - | - |
| 1777408496 | 4.44° C | 100% | 1015 hPa | - | - | - | - |
| 1777407596 | 4.44° C | 100% | 1015 hPa | - | - | - | - |
| 1777406698 | 4.44° C | 100% | 1015 hPa | - | - | - | - |
| 1777405801 | 4.44° C | 100% | 1015 hPa | - | - | - | - |
| 1777404901 | 4.44° C | 100% | 1014.8 hPa | - | - | - | - |
| 1777404001 | 4.44° C | 100% | 1014.7 hPa | - | - | - | - |
| 1777401300 | 4.44° C | 100% | 1014.6 hPa | - | - | - | - |
| 1777400400 | 4.44° C | 100% | 1014.5 hPa | - | - | - | - |
| 1777397700 | 4.44° C | 100% | 1014.2 hPa | - | - | - | - |
| 1777396800 | 4.44° C | 100% | 1014.1 hPa | - | - | - | - |
| 1777386006 | 3.89° C | 100% | 1012.9 hPa | - | - | - | - |
| 1777383310 | 4.44° C | 100% | 1012.3 hPa | - | - | - | - |
| 1777382409 | 4.44° C | 100% | 1012.2 hPa | - | - | - | - |
| 1777381544 | 5° C | 100% | 1011.9 hPa | - | - | - | - |
| 1777379709 | 4.44° C | 100% | 1011.8 hPa | - | - | - | - |
| 1777377909 | 4.44° C | 100% | 1011.1 hPa | - | - | - | - |
| 1777376109 | 3.89° C | 100% | 1010.9 hPa | - | - | - | - |
| 1777374311 | 3.89° C | 100% | 1010.8 hPa | - | - | - | - |
| 1777372513 | 3.89° C | 100% | 1010.5 hPa | - | - | - | - |
| 1777371613 | 4.44° C | 100% | 1010.2 hPa | - | - | - | - |
| 1777370713 | 3.89° C | 100% | 1010 hPa | - | - | - | - |
| 1777369813 | 4.44° C | 96% | 1009.9 hPa | - | - | - | - |
* Rain since midnight (hover to see other rain measurements)
** Current wind speed in m/s (hover to see current wind gust speed)